Time;durP1;ratioP1;P1;durP2;ratioP2;P2;SDS_P1;SDS_P2;PMS_P1;PMS_P2;Temp;Humidity;BMP_temperature;BMP_pressure;BME280_temperature;BME280_humidity;BME280_pressure;Samples;Min_cycle;Max_cycle;Signal;HPM_P1;HPM_P2
2022/06/17 00:01:23;;;;;;;8.27;2.83;;;;;;;;;;5014266;28;20057;-61
2022/06/17 00:03:51;;;;;;;5.28;2.95;;;;;;;;;;5014508;28;20470;-65
2022/06/17 00:06:17;;;;;;;4.82;2.90;;;;;;;;;;5014617;28;20030;-63
2022/06/17 00:08:44;;;;;;;6.03;2.70;;;;;;;;;;5014696;28;20057;-63
2022/06/17 00:11:14;;;;;;;4.30;2.63;;;;;;;;;;5014621;28;20032;-61
2022/06/17 00:13:41;;;;;;;4.35;2.50;;;;;;;;;;5014141;28;20018;-62
2022/06/17 00:16:14;;;;;;;5.03;2.80;;;;;;;;;;5014715;28;20030;-64
2022/06/17 00:18:41;;;;;;;4.38;2.88;;;;;;;;;;5014245;28;20084;-62
2022/06/17 00:21:12;;;;;;;5.40;3.00;;;;;;;;;;5014081;28;20469;-64
2022/06/17 00:23:38;;;;;;;10.23;3.60;;;;;;;;;;5014195;28;20018;-62
2022/06/17 00:26:04;;;;;;;8.23;3.75;;;;;;;;;;5014270;28;20447;-62
2022/06/17 00:28:30;;;;;;;7.82;3.20;;;;;;;;;;5013989;28;20105;-63
2022/06/17 00:30:56;;;;;;;4.53;2.90;;;;;;;;;;5014053;28;20117;-60
2022/06/17 00:33:22;;;;;;;7.10;2.97;;;;;;;;;;5013891;28;20026;-62
2022/06/17 00:35:50;;;;;;;6.85;3.88;;;;;;;;;;5014076;28;20041;-62
2022/06/17 00:38:19;;;;;;;8.07;3.78;;;;;;;;;;5014086;28;20030;-63
2022/06/17 00:40:46;;;;;;;5.63;3.70;;;;;;;;;;5013697;28;20560;-62
2022/06/17 00:43:24;;;;;;;10.90;3.95;;;;;;;;;;5013447;28;20033;-61
2022/06/17 00:45:53;;;;;;;8.52;4.40;;;;;;;;;;5013760;28;20071;-63
2022/06/17 00:48:26;;;;;;;7.53;4.13;;;;;;;;;;5013569;28;20030;-62
2022/06/17 00:50:54;;;;;;;9.00;4.20;;;;;;;;;;5013573;28;20386;-62
2022/06/17 00:53:32;;;;;;;7.80;3.85;;;;;;;;;;5013546;28;20486;-61
2022/06/17 00:56:04;;;;;;;9.10;3.80;;;;;;;;;;5013725;28;20040;-63
2022/06/17 00:58:32;;;;;;;9.00;4.25;;;;;;;;;;5013315;28;20121;-62
2022/06/17 01:01:00;;;;;;;9.13;4.22;;;;;;;;;;5013091;28;20065;-62
2022/06/17 01:03:35;;;;;;;6.25;3.80;;;;;;;;;;5013396;28;20028;-61
2022/06/17 01:06:04;;;;;;;9.82;4.50;;;;;;;;;;5013502;28;20034;-62
2022/06/17 01:11:19;;;;;;;9.63;3.80;;;;;;;;;;5013281;28;20072;-63
2022/06/17 01:13:48;;;;;;;7.13;4.30;;;;;;;;;;5013275;28;20054;-62
2022/06/17 01:16:14;;;;;;;8.10;4.22;;;;;;;;;;5013580;28;20018;-63
2022/06/17 01:18:43;;;;;;;10.20;3.90;;;;;;;;;;5013217;28;20025;-62
2022/06/17 01:21:14;;;;;;;12.50;4.32;;;;;;;;;;5013077;28;20062;-62
2022/06/17 01:23:40;;;;;;;11.05;4.32;;;;;;;;;;5013221;28;20030;-62
2022/06/17 01:26:06;;;;;;;8.57;3.95;;;;;;;;;;5013180;28;20053;-63
2022/06/17 01:28:32;;;;;;;7.55;3.92;;;;;;;;;;5013192;28;20021;-62
2022/06/17 01:30:59;;;;;;;7.28;3.95;;;;;;;;;;5013130;28;20398;-63
2022/06/17 01:33:25;;;;;;;8.85;3.83;;;;;;;;;;5012871;28;20026;-62
2022/06/17 01:35:56;;;;;;;9.98;4.13;;;;;;;;;;5013059;28;20030;-62
2022/06/17 01:38:23;;;;;;;8.17;3.77;;;;;;;;;;5011065;28;20575;-62
2022/06/17 01:40:50;;;;;;;7.72;3.88;;;;;;;;;;5012760;28;20125;-64
2022/06/17 01:43:18;;;;;;;11.88;3.88;;;;;;;;;;5012694;28;20046;-64
2022/06/17 01:45:48;;;;;;;6.22;4.10;;;;;;;;;;5012680;28;20041;-63
2022/06/17 01:48:16;;;;;;;8.57;4.38;;;;;;;;;;5012998;28;20029;-62
2022/06/17 01:50:44;;;;;;;6.93;3.85;;;;;;;;;;5012746;28;20099;-62
2022/06/17 01:53:12;;;;;;;7.80;3.60;;;;;;;;;;5012449;28;20025;-63
2022/06/17 01:55:43;;;;;;;8.00;3.70;;;;;;;;;;5012984;28;20021;-62
2022/06/17 01:58:13;;;;;;;6.80;4.00;;;;;;;;;;5012738;28;20033;-63
2022/06/17 02:00:43;;;;;;;6.13;3.78;;;;;;;;;;5012462;28;20050;-62
2022/06/17 02:03:12;;;;;;;9.63;3.67;;;;;;;;;;5014201;28;20138;-63
2022/06/17 02:05:40;;;;;;;8.65;4.35;;;;;;;;;;5013326;28;20141;-63
2022/06/17 02:08:06;;;;;;;8.23;4.10;;;;;;;;;;5012037;28;20115;-62
2022/06/17 02:10:33;;;;;;;8.30;3.65;;;;;;;;;;5011499;28;20029;-63
2022/06/17 02:13:01;;;;;;;7.90;3.88;;;;;;;;;;5012416;28;20025;-62
2022/06/17 02:15:27;;;;;;;6.50;3.78;;;;;;;;;;5012246;28;20040;-62
2022/06/17 02:17:55;;;;;;;10.45;4.20;;;;;;;;;;5012354;28;20034;-62
2022/06/17 02:20:21;;;;;;;8.73;4.28;;;;;;;;;;5011947;28;20068;-62
2022/06/17 02:22:48;;;;;;;10.57;4.57;;;;;;;;;;5010125;28;20042;-64
2022/06/17 02:25:17;;;;;;;9.45;4.38;;;;;;;;;;5012094;28;20037;-62
2022/06/17 02:27:44;;;;;;;6.97;4.30;;;;;;;;;;5011829;28;20030;-64
2022/06/17 02:30:10;;;;;;;13.00;4.78;;;;;;;;;;5012140;28;20095;-64
2022/06/17 02:32:37;;;;;;;11.85;4.85;;;;;;;;;;5011819;28;20092;-64
2022/06/17 02:35:15;;;;;;;9.80;4.97;;;;;;;;;;5011998;28;20034;-61
2022/06/17 02:37:41;;;;;;;10.77;5.22;;;;;;;;;;5011951;28;20029;-62
2022/06/17 02:40:24;;;;;;;10.55;4.68;;;;;;;;;;5011904;28;20034;-62
2022/06/17 02:42:50;;;;;;;6.95;4.72;;;;;;;;;;5011885;28;20103;-64
2022/06/17 02:45:19;;;;;;;10.73;5.43;;;;;;;;;;5011783;28;20101;-64
2022/06/17 02:47:45;;;;;;;24.63;5.90;;;;;;;;;;5011927;28;20370;-64
2022/06/17 02:50:15;;;;;;;9.98;5.25;;;;;;;;;;5011856;28;20055;-61
2022/06/17 02:52:41;;;;;;;9.93;5.28;;;;;;;;;;5011718;28;20040;-61
2022/06/17 02:55:19;;;;;;;10.30;5.07;;;;;;;;;;5011822;28;20481;-63
2022/06/17 02:57:47;;;;;;;10.63;5.40;;;;;;;;;;5011890;28;20108;-60
2022/06/17 03:00:16;;;;;;;9.75;5.20;;;;;;;;;;5011553;28;20423;-60
2022/06/17 03:02:44;;;;;;;8.88;5.15;;;;;;;;;;5011392;28;20531;-61
2022/06/17 03:05:18;;;;;;;9.73;5.20;;;;;;;;;;5011840;28;20385;-61
2022/06/17 03:07:44;;;;;;;12.35;5.60;;;;;;;;;;5011646;28;20044;-64
2022/06/17 03:10:15;;;;;;;7.80;5.13;;;;;;;;;;5011584;28;20034;-62
2022/06/17 03:12:43;;;;;;;11.00;5.22;;;;;;;;;;5011412;28;20018;-62
2022/06/17 03:15:11;;;;;;;9.80;5.22;;;;;;;;;;5011184;28;20025;-63
2022/06/17 03:17:39;;;;;;;13.25;5.18;;;;;;;;;;5011258;28;20101;-62
2022/06/17 03:20:06;;;;;;;10.38;5.85;;;;;;;;;;5011258;28;20478;-65
2022/06/17 03:22:32;;;;;;;13.90;5.90;;;;;;;;;;5012939;28;20025;-64
2022/06/17 03:25:03;;;;;;;8.23;5.38;;;;;;;;;;5015223;28;20018;-63
2022/06/17 03:27:38;;;;;;;9.70;5.57;;;;;;;;;;5015183;28;20164;-64
2022/06/17 03:30:05;;;;;;;10.48;5.63;;;;;;;;;;5015089;28;20041;-64
2022/06/17 03:32:34;;;;;;;12.98;5.60;;;;;;;;;;5015132;28;20027;-64
2022/06/17 03:35:00;;;;;;;11.25;5.55;;;;;;;;;;5015088;28;20164;-64
2022/06/17 03:37:39;;;;;;;10.07;5.60;;;;;;;;;;5014867;28;20478;-64
2022/06/17 03:40:08;;;;;;;8.70;5.28;;;;;;;;;;5014953;28;20057;-63
2022/06/17 03:42:39;;;;;;;10.20;5.40;;;;;;;;;;5014834;28;20104;-64
2022/06/17 03:45:10;;;;;;;10.75;5.88;;;;;;;;;;5014518;28;20025;-66
2022/06/17 03:47:42;;;;;;;11.67;5.93;;;;;;;;;;5014850;28;20124;-63
2022/06/17 03:50:08;;;;;;;;;;;;;;;;;;5015445;28;20247;-64
2022/06/17 03:52:37;;;;;;;13.43;5.45;;;;;;;;;;5014797;28;19911;-66
2022/06/17 03:55:04;;;;;;;10.30;5.53;;;;;;;;;;5014910;28;20026;-64
2022/06/17 03:57:31;;;;;;;11.65;5.38;;;;;;;;;;5014885;28;20030;-64
2022/06/17 03:59:58;;;;;;;10.85;5.82;;;;;;;;;;5014249;28;20064;-66
2022/06/17 04:02:29;;;;;;;10.50;5.50;;;;;;;;;;5014578;28;20034;-64
2022/06/17 04:04:55;;;;;;;11.35;5.45;;;;;;;;;;5014129;28;20018;-65
2022/06/17 04:07:22;;;;;;;10.13;5.30;;;;;;;;;;5014546;28;20405;-66
2022/06/17 04:09:49;;;;;;;13.30;5.85;;;;;;;;;;5014372;28;20474;-63
2022/06/17 04:12:19;;;;;;;8.18;5.20;;;;;;;;;;5014391;28;20133;-64
2022/06/17 04:14:45;;;;;;;15.80;5.40;;;;;;;;;;5014359;28;20034;-66
2022/06/17 04:17:29;;;;;;;10.77;5.38;;;;;;;;;;5014205;28;20143;-65
2022/06/17 04:20:19;;;;;;;13.88;5.50;;;;;;;;;;5014212;28;20026;-65
2022/06/17 04:22:47;;;;;;;15.52;5.68;;;;;;;;;;5003710;28;20118;-66
2022/06/17 04:25:17;;;;;;;11.32;5.78;;;;;;;;;;5014382;28;20026;-64
2022/06/17 04:27:56;;;;;;;8.73;5.00;;;;;;;;;;5014055;28;20092;-64
2022/06/17 04:30:24;;;;;;;11.13;5.45;;;;;;;;;;5014155;28;20507;-63
2022/06/17 04:32:53;;;;;;;10.77;5.28;;;;;;;;;;5013274;28;20041;-64
2022/06/17 04:35:19;;;;;;;13.02;5.68;;;;;;;;;;5013849;28;20034;-63
2022/06/17 04:37:46;;;;;;;10.48;4.93;;;;;;;;;;5013578;28;20030;-64
2022/06/17 04:40:24;;;;;;;8.23;5.38;;;;;;;;;;5013481;28;20370;-64
2022/06/17 04:42:52;;;;;;;11.23;4.85;;;;;;;;;;5013599;28;20034;-64
2022/06/17 04:45:20;;;;;;;10.25;5.03;;;;;;;;;;5013391;28;20044;-64
2022/06/17 04:47:46;;;;;;;11.75;5.07;;;;;;;;;;5013607;28;20053;-64
2022/06/17 04:50:14;;;;;;;11.20;5.95;;;;;;;;;;5013596;28;20072;-63
2022/06/17 04:52:42;;;;;;;11.32;5.85;;;;;;;;;;5013518;28;20041;-65
2022/06/17 04:55:23;;;;;;;12.15;5.85;;;;;;;;;;5013583;28;20490;-62
2022/06/17 04:57:49;;;;;;;12.32;6.15;;;;;;;;;;5013320;28;20054;-63
2022/06/17 05:00:23;;;;;;;13.38;5.80;;;;;;;;;;5013129;28;20057;-62
2022/06/17 05:02:49;;;;;;;8.63;5.70;;;;;;;;;;5013124;28;20029;-64
2022/06/17 05:05:27;;;;;;;15.23;6.47;;;;;;;;;;5013129;28;20495;-64
2022/06/17 05:07:54;;;;;;;13.43;6.90;;;;;;;;;;5013002;28;20021;-63
2022/06/17 05:10:23;;;;;;;13.80;7.63;;;;;;;;;;5013349;28;20030;-64
2022/06/17 05:12:52;;;;;;;15.95;7.75;;;;;;;;;;5013205;28;20498;-64
2022/06/17 05:15:19;;;;;;;14.52;7.00;;;;;;;;;;5012802;28;20034;-63
2022/06/17 05:17:45;;;;;;;15.80;7.07;;;;;;;;;;5013139;28;20406;-63
2022/06/17 05:20:14;;;;;;;15.88;6.65;;;;;;;;;;5012729;28;20486;-63
2022/06/17 05:22:48;;;;;;;13.98;6.57;;;;;;;;;;5012813;28;20032;-66
2022/06/17 05:25:17;;;;;;;9.75;6.40;;;;;;;;;;5012624;28;20460;-63
2022/06/17 05:27:43;;;;;;;16.48;7.10;;;;;;;;;;5012725;28;20018;-63
2022/06/17 05:30:11;;;;;;;14.18;6.50;;;;;;;;;;5013039;28;20374;-64
2022/06/17 05:32:37;;;;;;;14.02;5.82;;;;;;;;;;5012574;28;20030;-63
2022/06/17 05:35:03;;;;;;;14.52;5.97;;;;;;;;;;5012663;28;20030;-65
2022/06/17 05:37:29;;;;;;;13.40;6.05;;;;;;;;;;5012695;28;20050;-65
2022/06/17 05:39:55;;;;;;;14.38;7.68;;;;;;;;;;5012048;28;20032;-66
2022/06/17 05:42:22;;;;;;;10.95;6.18;;;;;;;;;;5011818;28;20049;-64
2022/06/17 05:44:48;;;;;;;13.73;6.45;;;;;;;;;;5007549;28;20033;-65
2022/06/17 05:47:14;;;;;;;17.63;6.43;;;;;;;;;;5011011;28;20042;-66
2022/06/17 05:49:40;;;;;;;10.65;6.80;;;;;;;;;;5011223;28;20037;-63
2022/06/17 05:52:07;;;;;;;14.15;6.63;;;;;;;;;;5011401;28;20026;-67
2022/06/17 05:54:33;;;;;;;10.60;6.22;;;;;;;;;;5009936;28;20389;-61
2022/06/17 05:56:59;;;;;;;19.95;8.13;;;;;;;;;;5010618;28;20022;-62
2022/06/17 05:59:25;;;;;;;15.90;9.52;;;;;;;;;;5011891;28;20026;-63
2022/06/17 06:01:51;;;;;;;15.38;7.80;;;;;;;;;;5011917;28;20069;-60
2022/06/17 06:04:17;;;;;;;15.98;6.60;;;;;;;;;;5011795;28;20497;-61
2022/06/17 06:06:43;;;;;;;13.13;6.47;;;;;;;;;;5010697;28;20026;-61
2022/06/17 06:09:09;;;;;;;12.52;6.75;;;;;;;;;;5010676;28;20033;-63
2022/06/17 06:11:36;;;;;;;16.10;6.68;;;;;;;;;;5011510;28;20125;-61
2022/06/17 06:14:02;;;;;;;16.88;7.03;;;;;;;;;;5011091;28;20148;-62
2022/06/17 06:16:30;;;;;;;15.75;6.78;;;;;;;;;;5011866;28;20097;-60
2022/06/17 06:18:56;;;;;;;11.18;7.00;;;;;;;;;;5011649;28;20482;-61
2022/06/17 06:21:22;;;;;;;16.80;7.00;;;;;;;;;;5011615;28;20485;-61
2022/06/17 06:23:48;;;;;;;14.93;7.32;;;;;;;;;;5010873;28;20113;-66
2022/06/17 06:26:16;;;;;;;12.98;6.78;;;;;;;;;;5010512;28;20030;-66
2022/06/17 06:28:42;;;;;;;16.45;7.18;;;;;;;;;;5010551;28;20022;-61
2022/06/17 06:31:17;;;;;;;14.95;7.10;;;;;;;;;;5010259;28;20121;-66
2022/06/17 06:33:43;;;;;;;17.75;7.20;;;;;;;;;;5008580;28;20022;-61
2022/06/17 06:36:09;;;;;;;17.25;7.78;;;;;;;;;;5010505;28;20029;-62
2022/06/17 06:38:35;;;;;;;15.52;7.35;;;;;;;;;;5010332;28;20478;-64
2022/06/17 06:41:02;;;;;;;16.10;7.22;;;;;;;;;;5010234;28;20617;-61
2022/06/17 06:43:28;;;;;;;16.60;7.47;;;;;;;;;;5010282;28;20397;-61
2022/06/17 06:45:54;;;;;;;18.02;7.47;;;;;;;;;;5009756;28;20359;-61
2022/06/17 06:48:23;;;;;;;18.63;6.97;;;;;;;;;;5010301;28;20025;-61
2022/06/17 06:50:49;;;;;;;18.98;6.88;;;;;;;;;;5010115;28;20030;-61
2022/06/17 06:53:16;;;;;;;18.92;6.65;;;;;;;;;;5010109;28;20120;-61
2022/06/17 06:55:42;;;;;;;11.57;5.68;;;;;;;;;;5009903;28;20076;-61
2022/06/17 06:58:15;;;;;;;9.55;5.63;;;;;;;;;;5009809;28;20029;-64
2022/06/17 07:00:42;;;;;;;12.65;5.28;;;;;;;;;;5009682;28;20050;-61
2022/06/17 07:03:08;;;;;;;12.48;5.55;;;;;;;;;;5010380;28;20041;-61
2022/06/17 07:05:39;;;;;;;8.63;3.60;;;;;;;;;;5011012;28;20057;-62
2022/06/17 07:08:05;;;;;;;8.90;3.40;;;;;;;;;;5011081;28;20029;-68
2022/06/17 07:10:33;;;;;;;8.50;3.42;;;;;;;;;;5011299;28;20068;-66
2022/06/17 07:12:59;;;;;;;8.48;3.50;;;;;;;;;;5010794;28;20366;-63
2022/06/17 07:15:26;;;;;;;14.80;3.67;;;;;;;;;;5010906;28;20134;-64
2022/06/17 07:18:00;;;;;;;9.20;3.42;;;;;;;;;;5011149;28;20041;-60
2022/06/17 07:20:27;;;;;;;10.70;3.00;;;;;;;;;;5009883;28;20057;-60
2022/06/17 07:22:53;;;;;;;9.88;3.00;;;;;;;;;;5009404;28;20038;-66
2022/06/17 07:25:20;;;;;;;9.38;2.60;;;;;;;;;;5009392;28;20030;-66
2022/06/17 07:27:46;;;;;;;7.70;2.75;;;;;;;;;;5009829;28;20044;-64
2022/06/17 07:30:17;;;;;;;10.23;3.30;;;;;;;;;;5009704;28;20030;-61
2022/06/17 07:32:43;;;;;;;11.18;4.10;;;;;;;;;;5007749;28;20124;-63
2022/06/17 07:35:10;;;;;;;21.25;4.57;;;;;;;;;;5006950;28;20022;-62
2022/06/17 07:40:21;;;;;;;22.83;4.00;;;;;;;;;;5009866;28;20080;-61
2022/06/17 07:42:47;;;;;;;39.80;4.90;;;;;;;;;;5011002;28;20038;-63
2022/06/17 07:45:15;;;;;;;20.45;4.50;;;;;;;;;;5010701;28;20114;-60
2022/06/17 07:47:42;;;;;;;21.13;4.70;;;;;;;;;;5011145;28;20026;-62
2022/06/17 07:50:11;;;;;;;19.60;4.63;;;;;;;;;;5011199;28;20022;-63
2022/06/17 07:52:38;;;;;;;10.48;4.68;;;;;;;;;;5011096;28;20107;-62
2022/06/17 07:55:04;;;;;;;20.40;4.80;;;;;;;;;;5010330;28;20030;-63
2022/06/17 07:57:30;;;;;;;12.15;4.30;;;;;;;;;;5009457;28;20140;-64
2022/06/17 07:59:56;;;;;;;10.35;4.70;;;;;;;;;;5010812;28;20046;-63
2022/06/17 08:02:22;;;;;;;11.23;4.30;;;;;;;;;;5010659;28;20527;-65
2022/06/17 08:04:49;;;;;;;12.43;4.03;;;;;;;;;;5010765;28;20033;-64
2022/06/17 08:07:15;;;;;;;8.80;3.95;;;;;;;;;;5010365;28;20030;-66
2022/06/17 08:09:41;;;;;;;8.60;3.90;;;;;;;;;;5013676;28;20022;-63
2022/06/17 08:12:11;;;;;;;11.32;4.18;;;;;;;;;;5014361;28;20024;-65
2022/06/17 08:14:43;;;;;;;9.43;3.60;;;;;;;;;;5013923;28;20030;-65
2022/06/17 08:17:09;;;;;;;11.65;3.38;;;;;;;;;;5014053;28;20084;-64
2022/06/17 08:19:35;;;;;;;8.05;3.88;;;;;;;;;;5014074;28;20478;-67
2022/06/17 08:22:01;;;;;;;11.63;3.90;;;;;;;;;;5014228;28;20084;-63
2022/06/17 08:24:27;;;;;;;6.38;3.05;;;;;;;;;;5013819;28;20080;-64
2022/06/17 08:26:53;;;;;;;6.20;2.80;;;;;;;;;;5014007;28;20041;-64
2022/06/17 08:29:20;;;;;;;7.15;3.03;;;;;;;;;;5013793;28;20029;-66
2022/06/17 08:31:46;;;;;;;7.45;3.20;;;;;;;;;;5013918;28;20052;-65
2022/06/17 08:34:12;;;;;;;6.72;3.30;;;;;;;;;;5013629;28;20022;-63
2022/06/17 08:36:38;;;;;;;9.63;4.00;;;;;;;;;;5013307;28;20053;-65
2022/06/17 08:39:07;;;;;;;7.47;3.40;;;;;;;;;;5013904;28;20367;-65
2022/06/17 08:41:35;;;;;;;9.98;3.88;;;;;;;;;;5013277;28;20437;-64
2022/06/17 08:44:01;;;;;;;8.10;3.60;;;;;;;;;;5013478;28;20261;-64
2022/06/17 08:46:29;;;;;;;9.32;3.72;;;;;;;;;;5013116;28;20076;-67
2022/06/17 08:49:14;;;;;;;5.07;2.90;;;;;;;;;;5013423;28;20026;-65
2022/06/17 08:51:43;;;;;;;6.68;3.20;;;;;;;;;;5013298;28;20382;-62
2022/06/17 08:54:09;;;;;;;6.47;3.05;;;;;;;;;;5013400;28;20025;-62
2022/06/17 08:56:44;;;;;;;5.50;3.03;;;;;;;;;;5013238;28;20381;-67
2022/06/17 08:59:29;;;;;;;6.53;2.53;;;;;;;;;;5012689;28;20399;-64
2022/06/17 09:01:55;;;;;;;6.40;2.60;;;;;;;;;;5012889;28;20073;-65
2022/06/17 09:04:30;;;;;;;6.70;2.80;;;;;;;;;;5013368;28;20026;-68
2022/06/17 09:06:56;;;;;;;6.90;2.72;;;;;;;;;;5013101;28;20117;-66
2022/06/17 09:09:25;;;;;;;5.47;2.70;;;;;;;;;;5012743;28;20026;-64
2022/06/17 09:12:30;;;;;;;10.80;3.17;;;;;;;;;;5013027;28;20030;-63
2022/06/17 09:15:06;;;;;;;5.95;2.90;;;;;;;;;;4932619;29;20074;-66
2022/06/17 09:17:40;;;;;;;8.50;2.60;;;;;;;;;;4933194;29;20032;-63
2022/06/17 09:20:09;;;;;;;5.22;2.65;;;;;;;;;;4932966;29;20030;-68
2022/06/17 09:22:39;;;;;;;6.88;3.03;;;;;;;;;;4932848;29;20036;-63
2022/06/17 09:25:07;;;;;;;6.38;3.10;;;;;;;;;;4932767;29;20045;-67
2022/06/17 09:27:37;;;;;;;9.13;2.88;;;;;;;;;;4932871;29;20075;-63
2022/06/17 09:30:17;;;;;;;9.68;2.83;;;;;;;;;;4932723;29;20054;-65
2022/06/17 09:32:45;;;;;;;4.25;2.58;;;;;;;;;;4932627;29;20040;-63
2022/06/17 09:35:16;;;;;;;6.60;2.78;;;;;;;;;;4933012;29;20051;-63
2022/06/17 09:37:46;;;;;;;7.35;3.40;;;;;;;;;;4932446;29;20523;-64
2022/06/17 09:40:12;;;;;;;9.68;2.75;;;;;;;;;;4932550;29;20444;-65
2022/06/17 09:42:44;;;;;;;7.07;3.00;;;;;;;;;;4932452;29;20046;-61
2022/06/17 09:45:13;;;;;;;8.02;3.38;;;;;;;;;;4955339;28;20102;-61
2022/06/17 09:47:50;;;;;;;7.97;3.40;;;;;;;;;;5012438;28;20397;-62
2022/06/17 09:50:22;;;;;;;4.93;2.90;;;;;;;;;;5012381;28;20026;-66
2022/06/17 09:52:53;;;;;;;5.78;2.45;;;;;;;;;;5012088;28;20037;-64
2022/06/17 09:55:25;;;;;;;6.00;2.83;;;;;;;;;;5012284;28;20045;-64
2022/06/17 09:57:51;;;;;;;;;;;;;;;;;;5012598;28;20038;-62
2022/06/17 10:00:22;;;;;;;6.82;3.20;;;;;;;;;;5011465;28;19991;-67
2022/06/17 10:02:53;;;;;;;10.27;3.60;;;;;;;;;;5010870;28;20038;-67
2022/06/17 10:05:25;;;;;;;7.28;3.30;;;;;;;;;;5011716;28;20030;-65
2022/06/17 10:07:51;;;;;;;;;;;;;;;;;;5012225;28;20030;-61
2022/06/17 10:10:31;;;;;;;7.65;2.80;;;;;;;;;;5010107;28;20373;-63
2022/06/17 10:13:16;;;;;;;11.05;2.92;;;;;;;;;;5011337;28;20030;-62
2022/06/17 10:18:31;;;;;;;8.32;2.47;;;;;;;;;;5011339;28;20034;-60
2022/06/17 10:18:39;;;;;;;9.73;2.60;;;;;;;;;;5011605;28;20116;-63
2022/06/17 10:21:08;;;;;;;6.00;2.35;;;;;;;;;;5011571;28;20165;-67
2022/06/17 10:23:54;;;;;;;7.57;2.92;;;;;;;;;;5011404;28;20402;-64
2022/06/17 10:26:20;;;;;;;7.15;2.70;;;;;;;;;;5011405;28;20559;-68
2022/06/17 10:29:04;;;;;;;3.35;2.40;;;;;;;;;;5011624;28;20057;-68
2022/06/17 10:31:33;;;;;;;5.38;2.80;;;;;;;;;;5010600;28;20042;-61
2022/06/17 10:34:02;;;;;;;7.90;3.13;;;;;;;;;;5010424;28;20399;-62
2022/06/17 10:36:30;;;;;;;10.48;2.60;;;;;;;;;;5011696;28;20030;-61
2022/06/17 10:38:56;;;;;;;5.22;2.63;;;;;;;;;;5011380;28;20388;-67
2022/06/17 10:41:22;;;;;;;6.07;2.50;;;;;;;;;;5011221;28;20046;-62
2022/06/17 10:43:52;;;;;;;5.60;2.50;;;;;;;;;;5011383;28;20121;-65
2022/06/17 10:46:21;;;;;;;6.47;1.95;;;;;;;;;;5011132;28;20458;-68
2022/06/17 10:48:51;;;;;;;6.93;2.25;;;;;;;;;;5011223;28;20036;-64
2022/06/17 10:51:18;;;;;;;5.40;2.50;;;;;;;;;;5011346;28;20517;-65
2022/06/17 10:53:46;;;;;;;5.25;2.35;;;;;;;;;;5011149;28;20029;-65
2022/06/17 10:56:15;;;;;;;4.70;2.40;;;;;;;;;;5010817;28;20029;-65
2022/06/17 10:58:54;;;;;;;5.78;2.05;;;;;;;;;;5011254;28;20030;-63
2022/06/17 11:01:21;;;;;;;5.78;2.47;;;;;;;;;;5010718;28;20046;-68
2022/06/17 11:03:48;;;;;;;3.80;1.63;;;;;;;;;;5010899;28;20497;-65
2022/06/17 11:06:22;;;;;;;5.43;2.40;;;;;;;;;;5010775;28;20480;-68
2022/06/17 11:08:55;;;;;;;4.55;2.35;;;;;;;;;;5010685;28;20543;-69
2022/06/17 11:14:06;;;;;;;6.63;2.08;;;;;;;;;;5010489;28;19916;-62
2022/06/17 11:16:36;;;;;;;3.78;2.13;;;;;;;;;;5010907;28;20421;-63
2022/06/17 11:19:04;;;;;;;6.40;2.10;;;;;;;;;;5010882;28;20022;-68
2022/06/17 11:21:36;;;;;;;3.15;1.65;;;;;;;;;;5011173;28;20041;-63
2022/06/17 11:24:04;;;;;;;3.50;1.92;;;;;;;;;;5010897;28;20465;-62
2022/06/17 11:26:32;;;;;;;4.63;2.08;;;;;;;;;;5010842;28;20034;-62
2022/06/17 11:29:00;;;;;;;5.32;2.00;;;;;;;;;;5010672;28;20441;-69
2022/06/17 11:31:26;;;;;;;4.90;1.90;;;;;;;;;;5011243;28;20041;-67
2022/06/17 11:33:52;;;;;;;4.85;1.90;;;;;;;;;;5010706;28;20350;-66
2022/06/17 11:36:19;;;;;;;5.47;1.98;;;;;;;;;;5010743;28;20088;-68
2022/06/17 11:38:45;;;;;;;5.40;1.95;;;;;;;;;;5010443;28;20022;-68
2022/06/17 11:41:18;;;;;;;5.10;2.00;;;;;;;;;;5010968;28;20049;-69
2022/06/17 11:43:45;;;;;;;3.65;2.05;;;;;;;;;;5011815;28;20029;-68
2022/06/17 11:46:16;;;;;;;9.50;2.03;;;;;;;;;;5014591;28;20037;-64
2022/06/17 11:48:43;;;;;;;5.53;1.70;;;;;;;;;;5014995;28;20030;-65
2022/06/17 11:51:14;;;;;;;5.30;1.85;;;;;;;;;;5014852;28;20144;-65
2022/06/17 11:54:00;;;;;;;11.30;2.03;;;;;;;;;;5014852;28;20123;-65
2022/06/17 11:56:27;;;;;;;3.88;2.10;;;;;;;;;;5014363;28;20450;-68
2022/06/17 11:58:55;;;;;;;5.93;2.00;;;;;;;;;;5014501;28;20509;-65
2022/06/17 12:01:21;;;;;;;3.08;1.90;;;;;;;;;;5013859;28;20054;-63
2022/06/17 12:03:47;;;;;;;5.78;1.98;;;;;;;;;;5014559;28;20255;-69
2022/06/17 12:06:28;;;;;;;5.55;2.00;;;;;;;;;;5014447;28;20033;-67
2022/06/17 12:09:13;;;;;;;4.90;2.10;;;;;;;;;;5014254;28;20022;-64
2022/06/17 12:11:44;;;;;;;5.28;2.40;;;;;;;;;;5014270;28;20099;-62
2022/06/17 12:14:27;;;;;;;8.35;2.28;;;;;;;;;;5014290;28;20109;-66
2022/06/17 12:16:53;;;;;;;5.32;2.13;;;;;;;;;;5014402;28;20485;-65
2022/06/17 12:19:21;;;;;;;3.75;1.90;;;;;;;;;;5014293;28;20050;-65
2022/06/17 12:22:06;;;;;;;5.50;2.25;;;;;;;;;;5013796;28;20038;-67
2022/06/17 12:24:48;;;;;;;6.35;2.13;;;;;;;;;;5013566;28;20442;-68
2022/06/17 12:27:24;;;;;;;5.07;1.95;;;;;;;;;;5013747;28;20034;-69
2022/06/17 12:29:53;;;;;;;7.53;2.88;;;;;;;;;;5013413;28;20030;-66
2022/06/17 12:32:42;;;;;;;4.43;1.92;;;;;;;;;;5013644;28;20056;-63
2022/06/17 12:35:21;;;;;;;4.13;1.95;;;;;;;;;;5013903;28;20022;-66
2022/06/17 12:37:50;;;;;;;5.40;2.38;;;;;;;;;;5013484;28;20026;-65
2022/06/17 12:40:29;;;;;;;4.50;2.10;;;;;;;;;;5013655;28;20041;-64
2022/06/17 12:43:03;;;;;;;3.78;2.17;;;;;;;;;;5013374;28;20589;-68
2022/06/17 12:45:36;;;;;;;4.63;2.03;;;;;;;;;;5011857;28;20506;-63
2022/06/17 12:48:08;;;;;;;6.18;2.28;;;;;;;;;;5013561;28;20402;-63
2022/06/17 12:53:31;;;;;;;4.50;2.20;;;;;;;;;;5013336;28;20033;-69
2022/06/17 12:56:00;;;;;;;4.05;2.20;;;;;;;;;;5013629;28;20121;-64
2022/06/17 12:58:38;;;;;;;5.95;3.15;;;;;;;;;;5013258;28;20032;-63
2022/06/17 13:01:10;;;;;;;8.23;2.20;;;;;;;;;;5012872;28;20057;-64
2022/06/17 13:03:51;;;;;;;9.52;2.53;;;;;;;;;;5013142;28;20057;-63
2022/06/17 13:06:36;;;;;;;5.68;2.20;;;;;;;;;;5013367;28;20485;-68
2022/06/17 13:09:07;;;;;;;6.90;2.33;;;;;;;;;;5013150;28;20037;-68
2022/06/17 13:11:33;;;;;;;4.65;2.13;;;;;;;;;;5013030;28;20033;-63
2022/06/17 13:14:14;;;;;;;7.88;2.38;;;;;;;;;;5013140;28;20022;-63
2022/06/17 13:16:45;;;;;;;4.43;2.30;;;;;;;;;;5012898;28;20141;-63
2022/06/17 13:19:14;;;;;;;5.60;2.22;;;;;;;;;;5013204;28;20037;-67
2022/06/17 13:21:46;;;;;;;5.03;1.85;;;;;;;;;;5013208;28;20092;-67
2022/06/17 13:24:12;;;;;;;5.35;2.22;;;;;;;;;;5012854;28;20026;-65
2022/06/17 13:26:38;;;;;;;7.13;2.00;;;;;;;;;;5012178;28;20041;-63
2022/06/17 13:29:16;;;;;;;6.43;2.17;;;;;;;;;;5012527;28;20018;-63
2022/06/17 13:31:46;;;;;;;5.63;1.90;;;;;;;;;;5012462;28;20044;-63
2022/06/17 13:34:30;;;;;;;4.03;1.70;;;;;;;;;;5012472;28;20030;-63
2022/06/17 13:37:05;;;;;;;6.30;2.45;;;;;;;;;;5012553;28;20026;-65
2022/06/17 13:39:33;;;;;;;6.20;2.17;;;;;;;;;;5012522;28;20037;-64
2022/06/17 13:42:01;;;;;;;4.32;1.90;;;;;;;;;;5012689;28;20406;-65
2022/06/17 13:44:30;;;;;;;4.88;2.00;;;;;;;;;;5012574;28;20061;-69
2022/06/17 13:46:56;;;;;;;5.75;1.80;;;;;;;;;;5012453;28;20026;-64
2022/06/17 13:49:22;;;;;;;4.05;1.70;;;;;;;;;;5012455;28;20026;-69
2022/06/17 13:52:07;;;;;;;5.20;1.85;;;;;;;;;;5012533;28;20389;-64
2022/06/17 13:54:41;;;;;;;3.53;1.90;;;;;;;;;;5012407;28;20112;-65
2022/06/17 13:57:10;;;;;;;6.53;2.00;;;;;;;;;;5012540;28;20038;-66
2022/06/17 13:59:36;;;;;;;4.57;2.10;;;;;;;;;;5011806;28;20069;-69
2022/06/17 14:02:15;;;;;;;7.47;2.10;;;;;;;;;;5012299;28;20513;-68
2022/06/17 14:04:59;;;;;;;5.82;1.90;;;;;;;;;;5012782;28;20105;-63
2022/06/17 14:07:45;;;;;;;6.20;1.83;;;;;;;;;;5012234;28;20022;-68
2022/06/17 14:10:26;;;;;;;3.67;1.80;;;;;;;;;;5012496;28;20432;-64
2022/06/17 14:12:52;;;;;;;5.53;1.90;;;;;;;;;;5012263;28;20026;-67
2022/06/17 14:15:22;;;;;;;4.85;1.88;;;;;;;;;;5012242;28;20366;-65
2022/06/17 14:17:51;;;;;;;4.25;1.80;;;;;;;;;;5012284;28;20026;-69
2022/06/17 14:20:31;;;;;;;9.98;2.47;;;;;;;;;;5012153;28;20123;-67
2022/06/17 14:23:00;;;;;;;4.45;1.83;;;;;;;;;;5011459;28;20026;-64
2022/06/17 14:25:27;;;;;;;3.63;1.83;;;;;;;;;;5012268;28;20049;-68
2022/06/17 14:27:58;;;;;;;7.95;1.92;;;;;;;;;;5011932;28;20033;-63
2022/06/17 14:30:31;;;;;;;5.70;2.25;;;;;;;;;;5011941;28;20037;-67
2022/06/17 14:32:57;;;;;;;4.57;2.00;;;;;;;;;;5011987;28;20033;-64
2022/06/17 14:35:23;;;;;;;6.53;2.15;;;;;;;;;;5012037;28;20018;-68
2022/06/17 14:37:49;;;;;;;4.85;1.63;;;;;;;;;;5011951;28;20466;-67
2022/06/17 14:40:15;;;;;;;5.53;1.92;;;;;;;;;;5012031;28;20034;-68
2022/06/17 14:43:02;;;;;;;3.78;2.10;;;;;;;;;;5012178;28;20034;-64
2022/06/17 14:45:31;;;;;;;7.93;1.90;;;;;;;;;;4998057;28;20606;-64
2022/06/17 14:48:18;;;;;;;3.70;1.70;;;;;;;;;;5011530;28;20026;-66
2022/06/17 14:50:50;;;;;;;4.38;1.70;;;;;;;;;;5011570;28;20030;-67
2022/06/17 14:53:22;;;;;;;4.93;1.60;;;;;;;;;;5011462;28;20045;-63
2022/06/17 14:56:01;;;;;;;5.10;1.90;;;;;;;;;;5011682;28;20029;-65
2022/06/17 14:58:44;;;;;;;3.67;1.60;;;;;;;;;;5010881;28;20033;-69
2022/06/17 15:01:19;;;;;;;6.70;2.13;;;;;;;;;;5011207;28;20545;-67
2022/06/17 15:03:46;;;;;;;2.90;1.60;;;;;;;;;;5011172;28;20030;-63
2022/06/17 15:06:12;;;;;;;6.53;1.70;;;;;;;;;;5011199;28;20117;-63